Time;durP1;ratioP1;P1;durP2;ratioP2;P2;SDS_P1;SDS_P2;PMS_P1;PMS_P2;Temp;Humidity;BMP_temperature;BMP_pressure;BME280_temperature;BME280_humidity;BME280_pressure;Samples;Min_cycle;Max_cycle;Signal;HPM_P1;HPM_P2
2023/09/19 00:00:47;;;;;;;1999.90;999.90;;;;;;;16.43;100.00;94656.28;5063389;28;20170;-46
2023/09/19 00:03:12;;;;;;;1999.90;999.90;;;;;;;16.45;100.00;94664.09;5063646;28;20196;-48
2023/09/19 00:05:38;;;;;;;1999.90;999.90;;;;;;;16.47;100.00;94677.41;5067133;28;20209;-48
2023/09/19 00:08:04;;;;;;;1999.90;999.90;;;;;;;16.49;100.00;94683.25;5067091;28;20176;-49
2023/09/19 00:10:36;;;;;;;1999.90;999.90;;;;;;;16.52;100.00;94696.09;5067056;28;20282;-47
2023/09/19 00:13:08;;;;;;;1999.90;999.90;;;;;;;16.53;100.00;94698.38;5067304;28;20166;-48
2023/09/19 00:15:41;;;;;;;1999.90;999.90;;;;;;;16.54;100.00;94712.94;5066944;28;20361;-48
2023/09/19 00:18:08;;;;;;;1999.90;999.90;;;;;;;16.55;100.00;94729.03;5066946;28;20170;-49
2023/09/19 00:20:36;;;;;;;1999.90;999.90;;;;;;;16.58;100.00;94733.63;5067285;28;20165;-49
2023/09/19 00:23:08;;;;;;;1999.90;999.90;;;;;;;16.60;100.00;94746.97;5066781;28;20174;-51
2023/09/19 00:25:35;;;;;;;1999.90;999.90;;;;;;;16.61;100.00;94754.00;5067510;28;20279;-50
2023/09/19 00:28:01;;;;;;;1999.90;999.90;;;;;;;16.61;100.00;94756.75;5066729;28;20174;-48
2023/09/19 00:30:27;;;;;;;1999.90;999.90;;;;;;;16.61;100.00;94765.03;5066747;28;20174;-48
2023/09/19 00:32:55;;;;;;;1999.90;999.90;;;;;;;16.61;100.00;94770.56;5066876;28;20223;-48
2023/09/19 00:35:24;;;;;;;1999.90;999.90;;;;;;;16.62;100.00;94772.06;5067134;28;20174;-47
2023/09/19 00:37:49;;;;;;;1999.90;999.90;;;;;;;16.62;100.00;94769.31;5066514;28;20177;-48
2023/09/19 00:40:15;;;;;;;1999.90;999.90;;;;;;;16.63;100.00;94770.84;5067088;28;20166;-52
2023/09/19 00:42:42;;;;;;;1999.90;999.90;;;;;;;16.63;100.00;94768.88;5067245;28;20214;-49
2023/09/19 00:45:11;;;;;;;1999.90;999.90;;;;;;;16.66;100.00;94773.47;5066837;28;20378;-52
2023/09/19 00:47:51;;;;;;;1999.90;999.90;;;;;;;16.64;100.00;94770.38;5066772;28;20223;-50
2023/09/19 00:50:19;;;;;;;1999.90;999.90;;;;;;;16.65;100.00;94773.94;5066872;28;20201;-49
2023/09/19 00:52:46;;;;;;;1999.90;999.90;;;;;;;16.62;100.00;94780.34;5066242;28;20174;-50
2023/09/19 00:55:13;;;;;;;1999.90;999.90;;;;;;;16.58;100.00;94775.00;5066835;28;20176;-49
2023/09/19 00:57:39;;;;;;;1999.90;999.90;;;;;;;16.59;100.00;94778.50;5066127;28;20190;-51
2023/09/19 01:00:08;;;;;;;1999.90;999.90;;;;;;;16.61;100.00;94792.59;5066656;28;20203;-52
2023/09/19 01:02:34;;;;;;;1999.90;999.90;;;;;;;16.58;100.00;94788.78;5066067;28;20168;-52
2023/09/19 01:05:00;;;;;;;1999.90;999.90;;;;;;;16.56;100.00;94784.91;5065651;28;20222;-48
2023/09/19 01:07:29;;;;;;;1999.90;999.90;;;;;;;16.55;100.00;94783.41;5065988;28;20241;-52
2023/09/19 01:09:58;;;;;;;1999.90;999.90;;;;;;;16.56;100.00;94796.72;5066818;28;20166;-48
2023/09/19 01:12:52;;;;;;;1999.90;999.90;;;;;;;16.55;100.00;94797.97;5065865;28;20164;-51
2023/09/19 01:15:33;;;;;;;1999.90;999.90;;;;;;;16.55;100.00;94800.72;5066254;28;20154;-48
2023/09/19 01:18:11;;;;;;;1999.90;999.90;;;;;;;16.55;100.00;94800.72;5065617;28;20223;-52
2023/09/19 01:20:53;;;;;;;1999.90;999.90;;;;;;;16.57;100.00;94797.50;5065985;28;20158;-51
2023/09/19 01:23:43;;;;;;;1999.90;999.90;;;;;;;16.56;100.00;94804.22;5066341;28;20158;-51
2023/09/19 01:26:55;;;;;;;1999.90;999.90;;;;;;;16.56;100.00;94801.47;5065728;28;20194;-51
2023/09/19 01:29:34;;;;;;;1999.90;999.90;;;;;;;16.55;100.00;94799.94;5066200;28;20240;-50
2023/09/19 01:32:04;;;;;;;1999.90;999.90;;;;;;;16.56;100.00;94801.47;5065530;28;20169;-51
2023/09/19 01:34:50;;;;;;;1999.90;999.90;;;;;;;16.56;100.00;94813.28;5066055;28;20173;-52
2023/09/19 01:37:19;;;;;;;1999.90;999.90;;;;;;;16.59;100.00;94811.59;5066004;28;20256;-51
2023/09/19 01:39:48;;;;;;;1999.90;999.90;;;;;;;16.60;100.00;94818.66;5065888;28;20197;-53
2023/09/19 01:42:20;;;;;;;1999.90;999.90;;;;;;;16.60;100.00;94829.69;5065907;28;20242;-50
2023/09/19 01:44:48;;;;;;;1999.90;999.90;;;;;;;16.59;100.00;94828.13;5065703;28;20223;-51
2023/09/19 01:47:37;;;;;;;1999.90;999.90;;;;;;;16.60;100.00;94829.69;5065272;28;20162;-49
2023/09/19 01:50:20;;;;;;;1999.90;999.90;;;;;;;16.59;100.00;94833.63;5065410;28;20172;-51
2023/09/19 01:52:51;;;;;;;1999.90;999.90;;;;;;;16.61;100.00;94842.25;5065050;28;20181;-51
2023/09/19 01:55:18;;;;;;;1999.90;999.90;;;;;;;16.61;100.00;94840.22;5065471;28;20166;-47
2023/09/19 01:58:16;;;;;;;1999.90;999.90;;;;;;;16.62;100.00;94843.75;5064973;28;20185;-50
2023/09/19 02:00:44;;;;;;;1999.90;999.90;;;;;;;16.63;100.00;94839.78;5065465;28;20162;-48
2023/09/19 02:03:11;;;;;;;1999.90;999.90;;;;;;;16.61;100.00;94840.22;5065316;28;20189;-51
2023/09/19 02:05:37;;;;;;;1999.90;999.90;;;;;;;16.64;100.00;94838.56;5065362;28;20244;-52
2023/09/19 02:08:03;;;;;;;1999.90;999.90;;;;;;;16.64;100.00;94846.84;5065385;28;20166;-52
2023/09/19 02:10:29;;;;;;;1999.90;999.90;;;;;;;16.65;100.00;94853.88;5065532;28;20171;-51
2023/09/19 02:12:54;;;;;;;1999.90;999.90;;;;;;;16.65;100.00;94859.41;5065007;28;20166;-52
2023/09/19 02:15:20;;;;;;;1999.90;999.90;;;;;;;16.63;100.00;94851.59;5065225;28;20169;-51
2023/09/19 02:17:45;;;;;;;1999.90;999.90;;;;;;;16.62;100.00;94846.53;5064850;28;20169;-50
2023/09/19 02:20:14;;;;;;;1999.90;999.90;;;;;;;16.60;100.00;94846.22;5065175;28;20248;-50
2023/09/19 02:22:41;;;;;;;1999.90;999.90;;;;;;;16.59;100.00;94841.91;5064589;28;20173;-53
2023/09/19 02:25:07;;;;;;;1999.90;999.90;;;;;;;16.57;100.00;94844.38;5064452;28;20194;-52
2023/09/19 02:27:33;;;;;;;1999.90;999.90;;;;;;;16.53;100.00;94843.75;5063708;28;20172;-49
2023/09/19 02:29:58;;;;;;;1999.90;999.90;;;;;;;16.51;100.00;94837.91;5064359;28;20166;-51
2023/09/19 02:32:24;;;;;;;1999.90;999.90;;;;;;;16.47;100.00;94842.81;5064983;28;20261;-52
2023/09/19 02:34:51;;;;;;;1999.90;999.90;;;;;;;16.44;100.00;94839.72;5064857;28;20174;-50
2023/09/19 02:37:18;;;;;;;1999.90;999.90;;;;;;;16.42;100.00;94833.91;5064873;28;20166;-48
2023/09/19 02:39:44;;;;;;;1999.90;999.90;;;;;;;16.37;100.00;94833.69;5064171;28;20170;-48
2023/09/19 02:42:09;;;;;;;1999.90;999.90;;;;;;;16.36;100.00;94834.94;5064209;28;20173;-49
2023/09/19 02:44:35;;;;;;;1999.90;999.90;;;;;;;16.32;100.00;94826.78;5064083;28;20221;-48
2023/09/19 02:47:01;;;;;;;1999.90;999.90;;;;;;;16.29;100.00;94827.69;5064185;28;20170;-50
2023/09/19 02:49:26;;;;;;;1999.90;999.90;;;;;;;16.27;100.00;94827.41;5064041;28;20189;-49
2023/09/19 02:51:51;;;;;;;1999.90;999.90;;;;;;;16.24;100.00;94820.03;5064314;28;20169;-48
2023/09/19 02:54:17;;;;;;;1999.90;999.90;;;;;;;16.26;100.00;94823.09;5064102;28;20162;-48
2023/09/19 02:56:43;;;;;;;1999.90;999.90;;;;;;;16.20;100.00;94822.16;5063980;28;20170;-53
2023/09/19 02:59:10;;;;;;;1999.90;999.90;;;;;;;16.18;100.00;94816.31;5063936;28;20170;-49
2023/09/19 03:01:37;;;;;;;1999.90;999.90;;;;;;;16.15;100.00;94806.22;5064692;28;20169;-50
2023/09/19 03:04:03;;;;;;;1999.90;999.90;;;;;;;16.12;100.00;94798.88;5063935;28;20217;-48
2023/09/19 03:06:30;;;;;;;1999.90;999.90;;;;;;;16.13;100.00;94794.09;5064015;28;20197;-50
2023/09/19 03:08:56;;;;;;;1999.90;999.90;;;;;;;16.12;100.00;94790.59;5063761;28;20162;-53
2023/09/19 03:11:23;;;;;;;1999.90;999.90;;;;;;;16.12;100.00;94787.84;5063822;28;20174;-48
2023/09/19 03:13:53;;;;;;;1999.90;999.90;;;;;;;16.15;100.00;94789.69;5064256;28;20170;-48
2023/09/19 03:16:21;;;;;;;1999.90;999.90;;;;;;;16.12;100.00;94787.84;5063816;28;20209;-50
2023/09/19 03:18:48;;;;;;;1999.90;999.90;;;;;;;16.13;100.00;94797.63;5063622;28;20292;-48
2023/09/19 03:21:14;;;;;;;1999.90;999.90;;;;;;;16.15;100.00;94803.47;5063690;28;20177;-48
2023/09/19 03:23:39;;;;;;;1999.90;999.90;;;;;;;16.15;100.00;94800.72;5063497;28;20170;-49
2023/09/19 03:26:05;;;;;;;1999.90;999.90;;;;;;;16.17;100.00;94825.81;5063646;28;20198;-46
2023/09/19 03:28:33;;;;;;;1999.90;999.90;;;;;;;16.18;100.00;94821.09;5064104;28;20199;-52
2023/09/19 03:31:03;;;;;;;1999.90;999.90;;;;;;;16.20;100.00;94835.94;5063580;28;20165;-52
2023/09/19 03:33:31;;;;;;;1999.90;999.90;;;;;;;16.22;100.00;94861.03;5063607;28;20189;-49
2023/09/19 03:35:59;;;;;;;1999.90;999.90;;;;;;;16.23;100.00;94870.84;5064032;28;20165;-47
2023/09/19 03:38:25;;;;;;;1999.90;999.90;;;;;;;16.24;100.00;94880.66;5066106;28;20177;-46
2023/09/19 03:40:51;;;;;;;1999.90;999.90;;;;;;;16.26;100.00;94886.50;5068304;28;20177;-46
2023/09/19 03:43:17;;;;;;;1999.90;999.90;;;;;;;16.26;100.00;94893.97;5067847;28;20170;-48
2023/09/19 03:45:42;;;;;;;1999.90;999.90;;;;;;;16.25;100.00;94904.22;5067504;28;20308;-48
2023/09/19 03:48:10;;;;;;;1999.90;999.90;;;;;;;16.26;100.00;94903.03;5067724;28;20165;-47
2023/09/19 03:50:36;;;;;;;1999.90;999.90;;;;;;;16.26;100.00;94902.25;5067158;28;20243;-48
2023/09/19 03:53:02;;;;;;;1999.90;999.90;;;;;;;16.29;100.00;94904.84;5067279;28;20166;-45
2023/09/19 03:55:28;;;;;;;1999.90;999.90;;;;;;;16.28;100.00;94914.34;5067188;28;20165;-47
2023/09/19 03:57:53;;;;;;;1999.90;999.90;;;;;;;16.30;100.00;94917.44;5067397;28;20182;-47
2023/09/19 04:00:21;;;;;;;1999.90;999.90;;;;;;;16.33;100.00;94911.00;5067355;28;20157;-47
2023/09/19 04:02:47;;;;;;;1999.90;999.90;;;;;;;16.42;100.00;94928.84;5067155;28;20260;-46
2023/09/19 04:05:13;;;;;;;1999.90;999.90;;;;;;;16.40;100.00;94921.75;5066961;28;20221;-47
2023/09/19 04:07:38;;;;;;;1999.90;999.90;;;;;;;16.44;100.00;94930.69;5067026;28;20169;-45
2023/09/19 04:10:04;;;;;;;1999.90;999.90;;;;;;;16.49;100.00;94929.34;5067118;28;20224;-48
2023/09/19 04:12:29;;;;;;;1999.90;999.90;;;;;;;16.50;100.00;94935.63;5066961;28;20185;-47
2023/09/19 04:14:55;;;;;;;1999.90;999.90;;;;;;;16.49;100.00;94942.38;5067268;28;20162;-48
2023/09/19 04:17:20;;;;;;;1999.90;999.90;;;;;;;16.51;100.00;94948.19;5066904;28;20162;-50
2023/09/19 04:19:45;;;;;;;1999.90;999.90;;;;;;;16.53;100.00;94951.28;5066899;28;20169;-47
2023/09/19 04:22:12;;;;;;;1999.90;999.90;;;;;;;16.60;100.00;94951.00;5066863;28;20240;-47
2023/09/19 04:24:37;;;;;;;1999.90;999.90;;;;;;;16.55;100.00;94959.84;5066707;28;20205;-47
2023/09/19 04:27:04;;;;;;;1999.90;999.90;;;;;;;16.62;100.00;94967.84;5066978;28;20249;-48
2023/09/19 04:29:29;;;;;;;1999.90;999.90;;;;;;;16.60;100.00;94979.31;5066788;28;20162;-52
2023/09/19 04:31:56;;;;;;;1999.90;999.90;;;;;;;16.60;100.00;94982.06;5066499;28;20173;-50
2023/09/19 04:34:21;;;;;;;1999.90;999.90;;;;;;;16.61;100.00;94991.13;5067018;28;20166;-49
2023/09/19 04:36:47;;;;;;;1999.90;999.90;;;;;;;16.63;100.00;94989.44;5066932;28;20240;-48
2023/09/19 04:39:12;;;;;;;1999.90;999.90;;;;;;;16.60;100.00;95000.63;5066574;28;20246;-50
2023/09/19 04:41:41;;;;;;;1999.90;999.90;;;;;;;16.65;100.00;95002.78;5066439;28;20170;-52
2023/09/19 04:44:09;;;;;;;1999.90;999.90;;;;;;;16.63;100.00;95005.22;5066950;28;20166;-50
2023/09/19 04:46:35;;;;;;;1999.90;999.90;;;;;;;16.70;100.00;95004.94;5066510;28;20198;-51
2023/09/19 04:49:00;;;;;;;1999.90;999.90;;;;;;;16.66;100.00;95015.34;5065444;28;20174;-46
2023/09/19 04:51:29;;;;;;;1999.90;999.90;;;;;;;16.65;100.00;95019.34;5066286;28;20166;-47
2023/09/19 04:53:54;;;;;;;1999.90;999.90;;;;;;;16.65;100.00;95022.09;5066737;28;20190;-46
2023/09/19 04:56:20;;;;;;;1999.90;999.90;;;;;;;16.65;100.00;95024.84;5066134;28;20170;-51
2023/09/19 04:58:46;;;;;;;1999.90;999.90;;;;;;;16.64;100.00;95034.34;5066109;28;20213;-46
2023/09/19 05:01:13;;;;;;;1999.90;999.90;;;;;;;16.65;100.00;95036.66;5066838;28;20173;-49
2023/09/19 05:03:39;;;;;;;1999.90;999.90;;;;;;;16.66;100.00;95045.69;5066205;28;20206;-50
2023/09/19 05:06:05;;;;;;;1999.90;999.90;;;;;;;16.65;100.00;95041.41;5066381;28;20216;-46
2023/09/19 05:08:30;;;;;;;1999.90;999.90;;;;;;;16.68;100.00;95051.53;5065992;28;20208;-48
2023/09/19 05:10:55;;;;;;;1999.90;999.90;;;;;;;16.73;100.00;95059.22;5065796;28;20245;-46
2023/09/19 05:13:23;;;;;;;1999.90;999.90;;;;;;;16.84;100.00;95067.84;5066091;28;20165;-49
2023/09/19 05:15:48;;;;;;;1999.90;999.90;;;;;;;16.94;100.00;95074.97;5065601;28;20169;-48
2023/09/19 05:18:13;;;;;;;1999.90;999.90;;;;;;;17.09;100.00;95089.75;5065705;28;20165;-52
2023/09/19 05:20:39;;;;;;;1999.90;999.90;;;;;;;17.21;100.00;95094.41;5065531;28;20162;-48
2023/09/19 05:23:08;;;;;;;1999.90;999.90;;;;;;;17.20;100.00;95104.69;5065368;28;20242;-50
2023/09/19 05:25:38;;;;;;;1999.90;999.90;;;;;;;17.55;100.00;95111.63;5065469;28;20185;-49
2023/09/19 05:28:08;;;;;;;1999.90;999.90;;;;;;;17.92;100.00;95131.84;5065528;28;20172;-49
2023/09/19 05:30:42;;;;;;;1999.90;999.90;;;;;;;18.48;100.00;95146.09;5065380;28;20432;-50
2023/09/19 05:33:08;;;;;;;1999.90;999.90;;;;;;;18.70;100.00;95163.31;5065751;28;20169;-51
2023/09/19 05:35:34;;;;;;;1999.90;999.90;;;;;;;18.53;100.00;95167.59;5065753;28;20162;-48
2023/09/19 05:38:00;;;;;;;1999.90;999.90;;;;;;;18.32;100.00;95183.06;5065243;28;20165;-51
2023/09/19 05:40:25;;;;;;;1999.90;999.90;;;;;;;18.19;100.00;95189.94;5065309;28;20162;-53
2023/09/19 05:42:51;;;;;;;1999.90;999.90;;;;;;;17.93;100.00;95188.66;5065608;28;20216;-52
2023/09/19 05:45:23;;;;;;;1999.90;999.90;;;;;;;17.85;100.00;95187.41;5064776;28;20209;-48
2023/09/19 05:47:55;;;;;;;1999.90;999.90;;;;;;;17.84;100.00;95191.38;5065497;28;20178;-47
2023/09/19 05:50:21;;;;;;;1999.90;999.90;;;;;;;17.79;100.00;95178.94;5065113;28;20212;-47
2023/09/19 05:52:54;;;;;;;1999.90;999.90;;;;;;;17.78;100.00;95187.66;5064615;28;20174;-51
2023/09/19 05:55:20;;;;;;;1999.90;999.90;;;;;;;17.73;100.00;95191.00;5064907;28;20202;-48
2023/09/19 05:57:52;;;;;;;1999.90;999.90;;;;;;;17.76;100.00;95190.09;5065316;28;20206;-52
2023/09/19 06:00:22;;;;;;;1999.90;999.90;;;;;;;17.71;100.00;95185.19;5064960;28;20239;-53
2023/09/19 06:02:52;;;;;;;1999.90;999.90;;;;;;;18.02;100.00;95188.66;5064767;28;20184;-51
2023/09/19 06:05:18;;;;;;;1999.90;999.90;;;;;;;19.11;100.00;95195.91;5064980;28;20225;-48
2023/09/19 06:07:43;;;;;;;1999.90;999.90;;;;;;;20.59;100.00;95215.44;5064814;28;20180;-51
2023/09/19 06:10:09;;;;;;;1999.90;999.90;;;;;;;20.83;100.00;95234.88;5064652;28;20170;-48
2023/09/19 06:12:44;;;;;;;1999.90;999.90;;;;;;;20.82;100.00;95234.09;5065033;28;20237;-51
2023/09/19 06:15:14;;;;;;;1999.90;999.90;;;;;;;20.60;100.00;95239.19;5064434;28;20169;-52
2023/09/19 06:17:46;;;;;;;1999.90;999.90;;;;;;;20.62;100.00;95236.72;5064917;28;20162;-51
2023/09/19 06:20:14;;;;;;;1999.90;999.90;;;;;;;20.39;100.00;95233.91;5064583;28;20172;-50
2023/09/19 06:22:41;;;;;;;1999.90;999.90;;;;;;;21.52;100.00;95246.34;5064802;28;20177;-54
2023/09/19 06:25:07;;;;;;;1999.90;999.90;;;;;;;22.54;100.00;95249.13;5064151;28;20202;-52
2023/09/19 06:27:32;;;;;;;1999.90;999.90;;;;;;;22.36;100.00;95252.88;5064746;28;20200;-50
2023/09/19 06:29:58;;;;;;;1999.90;999.90;;;;;;;22.65;100.00;95250.03;5064217;28;20219;-50
2023/09/19 06:32:29;;;;;;;1999.90;999.90;;;;;;;23.32;100.00;95246.13;5064788;28;20170;-52
2023/09/19 06:34:55;;;;;;;1999.90;999.90;;;;;;;24.42;100.00;95238.81;5064065;28;20181;-51
2023/09/19 06:37:22;;;;;;;1999.90;999.90;;;;;;;24.68;100.00;95245.88;5064148;28;20169;-51
2023/09/19 06:39:49;;;;;;;1999.90;999.90;;;;;;;24.03;100.00;95251.69;5063923;28;20166;-52
2023/09/19 06:42:16;;;;;;;1999.90;999.90;;;;;;;23.44;100.00;95256.13;5063867;28;20166;-53
2023/09/19 06:44:42;;;;;;;1999.90;999.90;;;;;;;22.83;100.00;95257.38;5063880;28;20194;-53
2023/09/19 06:47:07;;;;;;;1999.90;999.90;;;;;;;22.71;100.00;95256.47;5064005;28;20173;-53
2023/09/19 06:49:33;;;;;;;1999.90;999.90;;;;;;;22.59;100.00;95256.78;5064037;28;20197;-53
2023/09/19 06:51:59;;;;;;;1999.90;999.90;;;;;;;21.95;100.00;95263.09;5064504;28;20174;-52
2023/09/19 06:54:24;;;;;;;1999.90;999.90;;;;;;;21.86;100.00;95271.53;5064129;28;20158;-52
2023/09/19 06:56:49;;;;;;;1999.90;999.90;;;;;;;21.25;100.00;95280.72;5063804;28;20166;-53
2023/09/19 06:59:15;;;;;;;1999.90;999.90;;;;;;;20.91;100.00;95281.22;5063904;28;20176;-53
2023/09/19 07:01:41;;;;;;;1999.90;999.90;;;;;;;21.29;100.00;95272.97;5063850;28;20165;-51
2023/09/19 07:04:06;;;;;;;1999.90;999.90;;;;;;;22.81;100.00;95271.03;5063800;28;20245;-53
2023/09/19 07:06:31;;;;;;;1999.90;999.90;;;;;;;23.21;100.00;95271.84;5063709;28;20201;-51
2023/09/19 07:08:57;;;;;;;1999.90;999.90;;;;;;;23.94;100.00;95271.41;5064298;28;20166;-50
2023/09/19 07:11:23;;;;;;;1999.90;999.90;;;;;;;23.47;100.00;95283.81;5063761;28;20166;-52
2023/09/19 07:13:48;;;;;;;1999.90;999.90;;;;;;;22.89;100.00;95277.72;5063607;28;20166;-54
2023/09/19 07:16:27;;;;;;;1999.90;999.90;;;;;;;22.40;100.00;95286.84;5063606;28;20166;-50
2023/09/19 07:18:52;;;;;;;1999.90;999.90;;;;;;;21.95;100.00;95290.91;5064179;28;20173;-50
2023/09/19 07:21:18;;;;;;;1999.90;999.90;;;;;;;21.50;100.00;95288.53;5064050;28;20261;-53
2023/09/19 07:23:43;;;;;;;1999.90;999.90;;;;;;;21.09;100.00;95297.78;5063627;28;20161;-51
2023/09/19 07:26:08;;;;;;;1999.90;999.90;;;;;;;21.16;100.00;95300.22;5064219;28;20204;-51
2023/09/19 07:28:35;;;;;;;1999.90;999.90;;;;;;;20.99;100.00;95299.13;5063883;28;20170;-51
2023/09/19 07:31:03;;;;;;;1999.90;999.90;;;;;;;20.98;100.00;95303.13;5064076;28;20169;-49
2023/09/19 07:33:28;;;;;;;1999.90;999.90;;;;;;;21.06;100.00;95304.31;5064341;28;20303;-53
2023/09/19 07:35:54;;;;;;;1999.90;999.90;;;;;;;21.10;100.00;95304.13;5063658;28;20170;-51
2023/09/19 07:38:20;;;;;;;1999.90;999.90;;;;;;;22.16;100.00;95312.03;5063643;28;20165;-48
2023/09/19 07:40:45;;;;;;;1999.90;999.90;;;;;;;22.88;100.00;95304.81;5063834;28;20170;-52
2023/09/19 07:43:11;;;;;;;1999.90;999.90;;;;;;;22.86;100.00;95300.97;5063402;28;20211;-51
2023/09/19 07:45:36;;;;;;;1999.90;999.90;;;;;;;22.72;100.00;95301.78;5063249;28;20216;-49
2023/09/19 07:48:04;;;;;;;1999.90;999.90;;;;;;;22.31;100.00;95301.66;5063401;28;20169;-51
2023/09/19 07:50:30;;;;;;;1999.90;999.90;;;;;;;22.29;100.00;95306.16;5063358;28;20170;-51
2023/09/19 07:52:56;;;;;;;1999.90;999.90;;;;;;;23.25;100.00;95299.50;5063394;28;20162;-49
2023/09/19 07:55:25;;;;;;;1999.90;999.90;;;;;;;23.24;100.00;95301.53;5063811;28;20166;-50
2023/09/19 07:57:52;;;;;;;1999.90;999.90;;;;;;;23.22;100.00;95297.69;5063203;28;20186;-52
2023/09/19 08:00:17;;;;;;;1999.90;999.90;;;;;;;23.09;100.00;95305.59;5063696;28;20166;-52
2023/09/19 08:02:43;;;;;;;1999.90;999.90;;;;;;;23.99;100.00;95296.56;5063233;28;20166;-50
2023/09/19 08:05:11;;;;;;;1999.90;999.90;;;;;;;24.63;100.00;95293.34;5062939;28;20268;-54
2023/09/19 08:07:37;;;;;;;1999.90;999.90;;;;;;;24.11;100.00;95308.63;5063670;28;20170;-49
2023/09/19 08:10:04;;;;;;;1999.90;999.90;;;;;;;24.07;100.00;95308.06;5063591;28;20207;-52
2023/09/19 08:12:30;;;;;;;1999.90;999.90;;;;;;;24.41;100.00;95305.09;5063156;28;20192;-49
2023/09/19 08:14:55;;;;;;;1999.90;999.90;;;;;;;23.65;100.00;95311.41;5063606;28;20194;-49
2023/09/19 08:17:22;;;;;;;1999.90;999.90;;;;;;;24.07;100.00;95308.06;5062953;28;20196;-54
2023/09/19 08:19:49;;;;;;;1999.90;999.90;;;;;;;23.87;100.00;95310.88;5063419;28;20170;-52
2023/09/19 08:22:17;;;;;;;1999.90;999.90;;;;;;;23.61;100.00;95310.09;5063138;28;20162;-52
2023/09/19 08:24:42;;;;;;;1999.90;999.90;;;;;;;24.64;100.00;95301.22;5064456;28;20190;-50
2023/09/19 08:27:10;;;;;;;1999.90;999.90;;;;;;;25.41;100.00;95297.38;5066748;28;20238;-54
2023/09/19 08:29:35;;;;;;;1999.90;999.90;;;;;;;25.76;100.00;95304.13;5066685;28;20157;-55
2023/09/19 08:32:00;;;;;;;1999.90;999.90;;;;;;;25.72;100.00;95303.59;5066533;28;20169;-53
2023/09/19 08:34:26;;;;;;;1999.90;999.90;;;;;;;24.93;100.00;95300.91;5067305;28;20241;-53
2023/09/19 08:36:58;;;;;;;1999.90;999.90;;;;;;;25.60;100.00;95301.25;5067058;28;20166;-50
2023/09/19 08:39:25;;;;;;;1999.90;999.90;;;;;;;27.01;100.00;95303.97;5066815;28;20177;-55
2023/09/19 08:42:00;;;;;;;1999.90;999.90;;;;;;;28.51;100.00;95305.63;5066118;28;20173;-54
2023/09/19 08:44:30;;;;;;;1999.90;999.90;;;;;;;28.82;100.00;95309.97;5066926;28;20300;-54
2023/09/19 08:47:09;;;;;;;1999.90;999.90;;;;;;;29.22;100.00;95297.84;5066459;28;20170;-52
2023/09/19 08:50:03;;;;;;;1999.90;999.90;;;;;;;28.84;100.00;95313.03;5066932;28;20215;-52
2023/09/19 08:52:40;;;;;;;1999.90;999.90;;;;;;;27.90;100.00;95300.38;5066824;28;20238;-50
2023/09/19 08:55:09;;;;;;;1999.90;999.90;;;;;;;27.47;100.00;95318.16;5066669;28;20166;-53
2023/09/19 08:57:39;;;;;;;1999.90;999.90;;;;;;;27.04;100.00;95319.78;5066179;28;20189;-52
2023/09/19 09:00:11;;;;;;;1999.90;999.90;;;;;;;27.69;100.00;95310.44;5066102;28;20178;-51
2023/09/19 09:02:40;;;;;;;1999.90;999.90;;;;;;;27.23;100.00;95310.31;5066642;28;20173;-49
2023/09/19 09:05:09;;;;;;;1999.90;999.90;;;;;;;27.48;100.00;95314.06;5065743;28;20229;-63
2023/09/19 09:07:36;;;;;;;1999.90;999.90;;;;;;;27.25;100.00;95312.63;5066392;28;20166;-63
2023/09/19 09:10:06;;;;;;;1999.90;999.90;;;;;;;26.27;100.00;95320.53;5065801;28;20219;-59
2023/09/19 09:12:31;;;;;;;1999.90;999.90;;;;;;;26.48;100.00;95318.25;5066432;28;20192;-60
2023/09/19 09:14:57;;;;;;;1999.90;999.90;;;;;;;25.96;100.00;95312.31;5066398;28;20170;-60
2023/09/19 09:17:26;;;;;;;1999.90;999.90;;;;;;;24.86;100.00;95317.38;5065608;28;20412;-52
2023/09/19 09:19:55;;;;;;;1999.90;999.90;;;;;;;24.40;100.00;95330.72;5065718;28;20166;-50
2023/09/19 09:22:21;;;;;;;1999.90;999.90;;;;;;;23.81;100.00;95326.78;5066169;28;20173;-53
2023/09/19 09:24:53;;;;;;;1999.90;999.90;;;;;;;23.47;100.00;95334.00;5066124;28;20224;-53
2023/09/19 09:27:19;;;;;;;1999.90;999.90;;;;;;;23.03;100.00;95338.19;5066335;28;20177;-51
2023/09/19 09:29:47;;;;;;;1999.90;999.90;;;;;;;22.70;100.00;95321.00;5065546;28;20213;-53
2023/09/19 09:32:35;;;;;;;1999.90;999.90;;;;;;;23.87;100.00;95313.66;5065417;28;20166;-52
2023/09/19 09:35:02;;;;;;;1999.90;999.90;;;;;;;25.43;100.00;95315.19;5065664;28;20174;-51
2023/09/19 09:37:29;;;;;;;1999.90;999.90;;;;;;;26.56;100.00;95306.03;5065933;28;20220;-52
2023/09/19 09:40:19;;;;;;;1999.90;999.90;;;;;;;27.58;100.00;95313.28;5065416;28;20169;-52
2023/09/19 09:42:52;;;;;;;1999.90;999.90;;;;;;;27.56;100.00;95321.44;5065759;28;20190;-47
2023/09/19 09:48:03;;;;;;;1999.90;999.90;;;;;;;26.12;100.00;95325.63;5066551;28;20150;-52
2023/09/19 09:53:32;;;;;;;1999.90;999.90;;;;;;;25.52;100.00;95322.59;5066054;28;20146;-50
2023/09/19 09:56:08;;;;;;;1999.90;999.90;;;;;;;24.77;100.00;95320.38;5065864;28;20243;-52
2023/09/19 09:58:40;;;;;;;1999.90;999.90;;;;;;;24.32;100.00;95333.16;5065521;28;20188;-48
2023/09/19 10:01:09;;;;;;;1999.90;999.90;;;;;;;24.71;100.00;95330.72;5065479;28;20208;-53
2023/09/19 10:03:39;;;;;;;1999.90;999.90;;;;;;;25.93;100.00;95321.69;5064617;28;20237;-50
2023/09/19 10:06:25;;;;;;;1999.90;999.90;;;;;;;27.20;100.00;95322.53;5064741;28;20202;-51
2023/09/19 10:09:29;;;;;;;1999.90;999.90;;;;;;;27.98;100.00;95329.44;5065332;28;20165;-52
2023/09/19 10:12:08;;;;;;;1999.90;999.90;;;;;;;27.42;100.00;95330.94;5064690;28;20191;-49
2023/09/19 10:14:37;;;;;;;1999.90;999.90;;;;;;;28.11;100.00;95320.44;5065261;28;20169;-60
2023/09/19 10:17:05;;;;;;;1999.90;999.90;;;;;;;27.93;98.35;95323.84;5064564;28;20245;-61
2023/09/19 10:19:39;;;;;;;1999.90;999.90;;;;;;;27.74;98.61;95326.47;5065170;28;20241;-61
2023/09/19 10:22:08;;;;;;;1999.90;999.90;;;;;;;27.44;99.41;95331.19;5065048;28;20177;-48
2023/09/19 10:24:36;;;;;;;1999.90;999.90;;;;;;;27.45;100.00;95338.31;5065052;28;20190;-48
2023/09/19 10:27:03;;;;;;;1999.90;999.90;;;;;;;28.56;95.33;95332.16;5064317;28;20169;-54
2023/09/19 10:29:32;;;;;;;1999.90;999.90;;;;;;;28.96;94.09;95325.69;5064499;28;20248;-52
2023/09/19 10:31:58;;;;;;;1999.90;999.90;;;;;;;28.66;93.18;95319.31;5065144;28;20166;-52
2023/09/19 10:34:26;;;;;;;1999.90;999.90;;;;;;;29.00;94.33;95317.72;5064917;28;20211;-51
2023/09/19 10:36:52;;;;;;;1999.90;999.90;;;;;;;29.11;86.23;95320.47;5064160;28;20166;-50
2023/09/19 10:39:19;;;;;;;1999.90;999.90;;;;;;;28.59;92.46;95333.94;5064856;28;20166;-54
2023/09/19 10:41:53;;;;;;;1999.90;999.90;;;;;;;29.10;85.89;95319.69;5064918;28;20193;-51
2023/09/19 10:44:22;;;;;;;1999.90;999.90;;;;;;;29.05;85.14;95328.97;5064741;28;20162;-52
2023/09/19 10:46:47;;;;;;;1999.90;999.90;;;;;;;28.43;89.30;95326.41;5063543;28;20190;-52
2023/09/19 10:49:13;;;;;;;1999.90;999.90;;;;;;;27.49;90.55;95333.22;5063980;28;20193;-49
2023/09/19 10:51:42;;;;;;;1999.90;999.90;;;;;;;28.58;88.80;95333.16;5064188;28;20166;-53
2023/09/19 10:54:13;;;;;;;1999.90;999.90;;;;;;;28.30;90.40;95332.59;5064515;28;20166;-54
2023/09/19 10:56:46;;;;;;;1999.90;999.90;;;;;;;28.01;93.16;95334.03;5063938;28;20173;-50
2023/09/19 10:59:18;;;;;;;1999.90;999.90;;;;;;;28.59;91.67;95314.25;5064475;28;20166;-49